createdAt,value
2022-12-15T00:01:59.154Z,77.38
2022-12-15T00:04:44.587Z,77.67
2022-12-15T00:07:29.822Z,77.87
2022-12-15T00:10:15.244Z,77.62
2022-12-15T00:13:00.546Z,77.27
2022-12-15T00:15:45.699Z,78.09
2022-12-15T00:18:30.947Z,77.88
2022-12-15T00:21:17.371Z,76.91
2022-12-15T00:24:02.483Z,77.28
2022-12-15T00:26:48.064Z,77.52
2022-12-15T00:29:33.045Z,77.50
2022-12-15T00:32:18.694Z,77.02
2022-12-15T00:35:03.822Z,77.31
2022-12-15T00:37:49.021Z,77.19
2022-12-15T00:40:15.810Z,76.91
2022-12-15T00:42:42.462Z,76.89
2022-12-15T00:45:09.652Z,76.75
2022-12-15T00:47:36.283Z,76.41
2022-12-15T00:50:23.505Z,77.28
2022-12-15T00:53:08.854Z,76.72
2022-12-15T00:55:54.148Z,77.09
2022-12-15T00:58:39.813Z,76.28
2022-12-15T01:01:26.857Z,76.44
2022-12-15T01:04:12.575Z,76.80
2022-12-15T01:06:57.918Z,76.99
2022-12-15T01:09:43.255Z,76.78
2022-12-15T01:12:28.517Z,76.71
2022-12-15T01:15:13.808Z,76.67
2022-12-15T01:17:59.026Z,77.10
2022-12-15T01:20:25.659Z,76.90
2022-12-15T01:22:54.920Z,76.90
2022-12-15T01:25:24.064Z,76.82
2022-12-15T01:27:51.121Z,76.75
2022-12-15T01:30:23.851Z,76.94
2022-12-15T01:32:50.854Z,76.82
2022-12-15T01:35:17.953Z,76.98
2022-12-15T01:37:45.253Z,76.60
2022-12-15T01:40:34.145Z,76.76
2022-12-15T01:43:00.931Z,76.67
2022-12-15T01:45:27.490Z,76.61
2022-12-15T01:47:58.219Z,76.74
2022-12-15T01:50:26.487Z,76.59
2022-12-15T01:52:55.033Z,76.66
2022-12-15T01:55:24.862Z,77.00
2022-12-15T01:57:57.554Z,76.55
2022-12-15T02:00:24.346Z,76.58
2022-12-15T02:02:51.719Z,76.66
2022-12-15T02:05:20.055Z,76.79
2022-12-15T02:07:46.838Z,76.74
2022-12-15T02:10:16.665Z,76.87
2022-12-15T02:12:55.515Z,76.68
2022-12-15T02:15:41.579Z,76.72
2022-12-15T02:18:28.495Z,77.15
2022-12-15T02:21:09.861Z,77.04
2022-12-15T02:24:13.091Z,77.01
2022-12-15T02:27:15.139Z,76.86
2022-12-15T02:30:12.619Z,76.97
2022-12-15T02:33:23.775Z,76.65
2022-12-15T02:35:57.960Z,76.66
2022-12-15T02:38:36.266Z,76.83
2022-12-15T02:41:05.404Z,76.41
2022-12-15T02:43:38.985Z,76.58
2022-12-15T02:46:55.585Z,76.91
2022-12-15T02:49:37.934Z,76.28
2022-12-15T02:52:19.666Z,76.97
2022-12-15T02:55:01.549Z,76.21
2022-12-15T02:57:36.612Z,75.93
2022-12-15T03:00:09.768Z,76.66
2022-12-15T03:02:40.946Z,76.32
2022-12-15T03:05:08.728Z,77.14
2022-12-15T03:07:35.432Z,76.40
2022-12-15T03:10:04.916Z,76.63
2022-12-15T03:12:31.739Z,76.32
2022-12-15T03:14:58.355Z,76.30
2022-12-15T03:17:25.092Z,76.63
2022-12-15T03:19:51.696Z,76.20
2022-12-15T03:22:18.315Z,76.22
2022-12-15T03:24:44.932Z,75.87
2022-12-15T03:27:12.070Z,75.75
2022-12-15T03:29:38.726Z,76.47
2022-12-15T03:32:05.828Z,76.36
2022-12-15T03:34:32.796Z,75.93
2022-12-15T03:36:59.443Z,75.49
2022-12-15T03:39:26.115Z,76.18
2022-12-15T03:41:52.711Z,76.47
2022-12-15T03:44:19.329Z,76.61
2022-12-15T03:46:45.951Z,75.95
2022-12-15T03:49:12.586Z,75.89
2022-12-15T03:51:39.289Z,76.28
2022-12-15T03:54:07.402Z,76.90
2022-12-15T03:56:34.060Z,76.87
2022-12-15T03:59:00.677Z,76.34
2022-12-15T04:01:31.819Z,76.30
2022-12-15T04:04:01.186Z,76.24
2022-12-15T04:06:31.174Z,76.57
2022-12-15T04:08:58.866Z,76.64
2022-12-15T04:11:25.458Z,76.51
2022-12-15T04:13:52.082Z,75.65
2022-12-15T04:16:20.302Z,75.17
2022-12-15T04:19:07.819Z,76.09
2022-12-15T04:21:34.478Z,75.86
2022-12-15T04:24:19.626Z,77.29
2022-12-15T04:27:04.883Z,76.79
2022-12-15T04:29:50.165Z,76.54
2022-12-15T04:32:35.619Z,77.23
2022-12-15T04:35:21.213Z,76.56
2022-12-15T04:38:06.779Z,76.58
2022-12-15T04:40:51.973Z,76.49
2022-12-15T04:43:37.163Z,77.08
2022-12-15T04:46:22.038Z,76.65
2022-12-15T04:49:07.638Z,76.26
2022-12-15T04:51:53.060Z,75.87
2022-12-15T04:54:38.264Z,76.53
2022-12-15T04:57:23.490Z,76.20
2022-12-15T05:00:08.876Z,75.76
2022-12-15T05:02:54.032Z,75.90
2022-12-15T05:05:39.160Z,75.73
2022-12-15T05:08:24.261Z,76.03
2022-12-15T05:11:09.571Z,74.85
2022-12-15T05:13:54.741Z,75.43
2022-12-15T05:16:40.937Z,76.14
2022-12-15T05:19:26.097Z,76.51
2022-12-15T05:22:11.361Z,77.00
2022-12-15T05:24:56.850Z,76.57
2022-12-15T05:27:42.372Z,76.52
2022-12-15T05:30:28.150Z,76.19
2022-12-15T05:32:57.019Z,76.41
2022-12-15T05:35:23.712Z,76.25
2022-12-15T05:37:50.707Z,75.59
2022-12-15T05:40:17.331Z,75.63
2022-12-15T05:42:43.938Z,76.42
2022-12-15T05:45:16.649Z,76.65
2022-12-15T05:47:43.237Z,77.28
2022-12-15T05:50:10.055Z,77.15
2022-12-15T05:52:36.668Z,76.15
2022-12-15T05:55:09.810Z,76.93
2022-12-15T05:57:36.492Z,76.62
2022-12-15T06:00:05.486Z,76.33
2022-12-15T06:02:32.274Z,75.65
2022-12-15T06:05:02.304Z,76.17
2022-12-15T06:07:28.977Z,76.04
2022-12-15T06:09:55.831Z,76.93
2022-12-15T06:12:22.453Z,75.68
2022-12-15T06:14:49.794Z,75.82
2022-12-15T06:17:16.643Z,75.95
2022-12-15T06:19:43.256Z,76.09
2022-12-15T06:22:10.555Z,75.90
2022-12-15T06:24:37.223Z,76.08
2022-12-15T06:27:04.229Z,75.22
2022-12-15T06:29:30.885Z,76.55
2022-12-15T06:31:57.547Z,75.35
2022-12-15T06:34:24.350Z,75.67
2022-12-15T06:36:51.086Z,76.05
2022-12-15T06:39:17.696Z,76.41
2022-12-15T06:41:44.513Z,76.11
2022-12-15T06:44:19.122Z,75.68
2022-12-15T06:46:48.249Z,76.19
2022-12-15T06:49:15.010Z,76.10
2022-12-15T06:51:42.918Z,75.85
2022-12-15T06:54:11.294Z,75.45
2022-12-15T06:56:39.396Z,76.62
2022-12-15T06:59:07.496Z,76.26
2022-12-15T07:01:35.043Z,76.23
2022-12-15T07:04:05.116Z,76.69
2022-12-15T07:06:36.710Z,76.15
2022-12-15T07:09:05.238Z,75.47
2022-12-15T07:11:31.896Z,75.77
2022-12-15T07:13:58.547Z,75.73
2022-12-15T07:16:25.472Z,75.55
2022-12-15T07:18:52.389Z,75.90
2022-12-15T07:21:19.080Z,75.60
2022-12-15T07:23:54.743Z,76.21
2022-12-15T07:26:23.010Z,76.87
2022-12-15T07:28:49.717Z,76.69
2022-12-15T07:31:16.484Z,76.41
2022-12-15T07:33:43.542Z,76.87
2022-12-15T07:36:11.105Z,76.30
2022-12-15T07:38:38.350Z,76.39
2022-12-15T07:41:07.431Z,75.64
2022-12-15T07:43:35.343Z,76.42
2022-12-15T07:46:03.114Z,76.65
2022-12-15T07:48:29.929Z,76.17
2022-12-15T07:51:08.493Z,76.60
2022-12-15T07:53:38.354Z,75.62
2022-12-15T07:56:08.614Z,76.25
2022-12-15T07:58:36.235Z,76.17
2022-12-15T08:01:06.193Z,76.74
2022-12-15T08:03:33.725Z,75.75
2022-12-15T08:06:10.191Z,76.35
2022-12-15T08:08:37.471Z,76.64
2022-12-15T08:11:12.069Z,76.58
2022-12-15T08:16:26.729Z,76.41
2022-12-15T08:18:53.893Z,76.59
2022-12-15T08:21:20.685Z,76.37
2022-12-15T08:23:47.896Z,77.18
2022-12-15T08:26:17.710Z,76.20
2022-12-15T08:28:46.154Z,76.74
2022-12-15T08:31:18.626Z,76.70
2022-12-15T08:33:46.124Z,76.27
2022-12-15T08:36:14.896Z,77.00
2022-12-15T08:38:43.489Z,76.09
2022-12-15T08:41:23.181Z,76.41
2022-12-15T08:43:51.490Z,76.98
2022-12-15T08:46:21.052Z,76.59
2022-12-15T08:48:48.707Z,76.87
2022-12-15T08:51:15.831Z,76.67
2022-12-15T08:53:43.095Z,76.11
2022-12-15T08:56:12.457Z,76.45
2022-12-15T08:58:40.083Z,76.27
2022-12-15T09:01:09.799Z,76.45
2022-12-15T09:03:36.913Z,76.91
2022-12-15T09:06:05.424Z,76.07
2022-12-15T09:08:32.915Z,76.88
2022-12-15T09:11:00.379Z,76.22
2022-12-15T09:13:27.243Z,76.16
2022-12-15T09:16:11.498Z,76.56
2022-12-15T09:18:38.540Z,76.32
2022-12-15T09:21:07.391Z,76.45
2022-12-15T09:23:36.046Z,76.22
2022-12-15T09:26:14.543Z,75.98
2022-12-15T09:28:43.056Z,76.52
2022-12-15T09:31:16.223Z,76.19
2022-12-15T09:33:44.132Z,76.38
2022-12-15T09:36:13.328Z,76.42
2022-12-15T09:38:41.952Z,76.91
2022-12-15T09:41:08.715Z,76.14
2022-12-15T09:43:46.290Z,76.63
2022-12-15T09:46:40.556Z,76.24
2022-12-15T09:49:25.777Z,77.02
2022-12-15T09:52:09.006Z,76.74
2022-12-15T09:54:38.096Z,76.81
2022-12-15T09:57:15.463Z,76.55
2022-12-15T09:59:49.040Z,76.56
2022-12-15T10:02:43.070Z,77.02
2022-12-15T10:05:17.496Z,76.65
2022-12-15T10:07:46.560Z,76.87
2022-12-15T10:10:29.905Z,76.82
2022-12-15T10:13:09.359Z,76.84
2022-12-15T10:15:45.597Z,77.21
2022-12-15T10:18:23.638Z,76.85
2022-12-15T10:20:54.119Z,76.53
2022-12-15T10:23:21.339Z,76.90
2022-12-15T10:25:51.271Z,76.62
2022-12-15T10:28:33.253Z,77.36
2022-12-15T10:31:32.332Z,77.17
2022-12-15T10:34:25.611Z,76.79
2022-12-15T10:36:53.484Z,76.76
2022-12-15T10:39:21.566Z,77.36
2022-12-15T10:42:13.035Z,76.93
2022-12-15T10:44:42.322Z,77.02
2022-12-15T10:47:23.893Z,76.82
2022-12-15T10:49:50.887Z,77.10
2022-12-15T10:52:27.435Z,77.16
2022-12-15T10:54:55.224Z,77.29
2022-12-15T10:57:27.978Z,76.78
2022-12-15T10:59:58.222Z,76.45
2022-12-15T11:02:27.573Z,77.33
2022-12-15T11:05:17.180Z,76.61
2022-12-15T11:07:53.452Z,77.30
2022-12-15T11:10:24.918Z,77.23
2022-12-15T11:12:59.034Z,76.76
2022-12-15T11:15:37.661Z,77.39
2022-12-15T11:18:18.628Z,77.25
2022-12-15T11:21:09.929Z,76.76
2022-12-15T11:23:46.793Z,76.51
2022-12-15T11:26:21.370Z,77.20
2022-12-15T11:28:56.511Z,76.88
2022-12-15T11:31:48.763Z,76.65
2022-12-15T11:34:19.779Z,77.28
2022-12-15T11:37:07.649Z,76.83
2022-12-15T11:39:41.542Z,76.95
2022-12-15T11:42:21.948Z,77.22
2022-12-15T11:44:56.115Z,77.54
2022-12-15T11:47:28.669Z,77.63
2022-12-15T11:50:14.399Z,77.07
2022-12-15T11:52:55.023Z,76.45
2022-12-15T11:55:49.969Z,77.50
2022-12-15T11:58:45.763Z,77.32
2022-12-15T12:02:02.404Z,77.13
2022-12-15T12:04:51.034Z,76.62
2022-12-15T12:07:44.607Z,77.45
2022-12-15T12:10:48.964Z,77.43
2022-12-15T12:13:43.100Z,77.45
2022-12-15T12:16:40.254Z,77.39
2022-12-15T12:19:38.407Z,77.01
2022-12-15T12:22:13.843Z,76.94
2022-12-15T12:24:48.978Z,76.90
2022-12-15T12:27:22.815Z,77.51
2022-12-15T12:29:55.638Z,77.60
2022-12-15T12:32:30.859Z,77.12
2022-12-15T12:35:31.565Z,77.38
2022-12-15T12:38:05.195Z,77.75
2022-12-15T12:40:41.134Z,77.23
2022-12-15T12:43:13.630Z,77.16
2022-12-15T12:45:52.220Z,77.69
2022-12-15T12:48:48.560Z,77.41
2022-12-15T12:51:24.702Z,77.14
2022-12-15T12:53:51.746Z,77.47
2022-12-15T12:56:36.614Z,77.49
2022-12-15T12:59:24.519Z,77.34
2022-12-15T13:01:51.361Z,77.77
2022-12-15T13:04:30.443Z,77.35
2022-12-15T13:07:08.886Z,77.15
2022-12-15T13:10:16.594Z,77.84
2022-12-15T13:12:54.493Z,77.61
2022-12-15T13:15:27.215Z,77.71
2022-12-15T13:18:12.269Z,76.88
2022-12-15T13:20:40.098Z,76.92
2022-12-15T13:23:21.933Z,77.48
2022-12-15T13:25:57.259Z,77.02
2022-12-15T13:28:36.288Z,76.96
2022-12-15T13:31:21.570Z,76.95
2022-12-15T13:33:51.174Z,77.76
2022-12-15T13:36:36.710Z,77.67
2022-12-15T13:39:12.586Z,77.69
2022-12-15T13:42:07.600Z,77.06
2022-12-15T13:44:39.535Z,77.26
2022-12-15T13:47:12.297Z,76.93
2022-12-15T13:50:01.363Z,77.51
2022-12-15T13:53:18.467Z,77.46
2022-12-15T13:55:55.117Z,76.96
2022-12-15T13:58:24.284Z,77.25
2022-12-15T14:00:56.403Z,77.47
2022-12-15T14:03:23.498Z,77.33
2022-12-15T14:06:00.213Z,77.42
2022-12-15T14:08:30.448Z,77.78
2022-12-15T14:11:07.082Z,77.58
2022-12-15T14:13:46.863Z,77.51
2022-12-15T14:16:21.891Z,77.66
2022-12-15T14:19:08.781Z,76.81
2022-12-15T14:21:35.483Z,77.53
2022-12-15T14:26:48.973Z,77.49
2022-12-15T14:29:17.512Z,77.46
2022-12-15T14:31:49.521Z,77.73
2022-12-15T14:34:25.864Z,77.76
2022-12-15T14:36:55.719Z,77.49
2022-12-15T14:39:32.238Z,77.87
2022-12-15T14:42:01.393Z,77.93
2022-12-15T14:44:38.560Z,77.72
2022-12-15T14:47:24.874Z,76.91
2022-12-15T14:49:51.765Z,77.55
2022-12-15T14:52:31.447Z,77.36
2022-12-15T14:55:04.776Z,77.40
2022-12-15T14:57:44.552Z,76.90
2022-12-15T15:00:31.712Z,77.18
2022-12-15T15:03:24.329Z,77.50
2022-12-15T15:06:15.810Z,77.34
2022-12-15T15:08:50.362Z,77.23
2022-12-15T15:11:35.184Z,77.18
2022-12-15T15:14:19.959Z,77.41
2022-12-15T15:17:00.730Z,76.88
2022-12-15T15:19:27.910Z,77.61
2022-12-15T15:21:54.622Z,77.08
2022-12-15T15:24:25.112Z,77.43
2022-12-15T15:26:55.446Z,77.14
2022-12-15T15:29:41.347Z,77.13
2022-12-15T15:32:20.241Z,77.17
2022-12-15T15:34:47.447Z,77.75
2022-12-15T15:37:25.239Z,77.32
2022-12-15T15:39:55.024Z,77.55
2022-12-15T15:42:25.450Z,77.35
2022-12-15T15:44:55.824Z,77.70
2022-12-15T15:47:26.109Z,77.36
2022-12-15T15:49:54.940Z,77.52
2022-12-15T15:52:22.444Z,77.74
2022-12-15T15:54:49.443Z,77.64
2022-12-15T15:57:17.998Z,78.09
2022-12-15T15:59:46.400Z,77.55
2022-12-15T16:02:14.198Z,78.24
2022-12-15T16:04:42.465Z,77.30
2022-12-15T16:07:25.666Z,78.12
2022-12-15T16:09:53.610Z,77.49
2022-12-15T16:12:27.588Z,77.74
2022-12-15T16:14:55.256Z,77.40
2022-12-15T16:17:22.967Z,78.24
2022-12-15T16:19:49.596Z,78.03
2022-12-15T16:22:21.381Z,77.37
2022-12-15T16:24:48.540Z,77.67
2022-12-15T16:27:15.892Z,77.86
2022-12-15T16:29:42.859Z,77.61
2022-12-15T16:32:11.769Z,77.80
2022-12-15T16:34:38.506Z,78.29
2022-12-15T16:37:05.572Z,77.63
2022-12-15T16:39:34.899Z,78.13
2022-12-15T16:42:02.181Z,78.10
2022-12-15T16:44:29.558Z,78.15
2022-12-15T16:46:57.627Z,77.87
2022-12-15T16:49:25.198Z,77.88
2022-12-15T16:51:53.820Z,77.62
2022-12-15T16:54:24.372Z,78.17
2022-12-15T16:56:53.117Z,77.52
2022-12-15T16:59:37.874Z,77.86
2022-12-15T17:02:34.449Z,77.78
2022-12-15T17:05:01.849Z,78.15
2022-12-15T17:07:29.449Z,78.01
2022-12-15T17:09:56.781Z,77.42
2022-12-15T17:12:23.562Z,78.14
2022-12-15T17:14:50.202Z,77.64
2022-12-15T17:17:19.323Z,77.75
2022-12-15T17:20:11.716Z,78.14
2022-12-15T17:22:33.601Z,77.77
2022-12-15T17:25:00.520Z,77.98
2022-12-15T17:27:29.777Z,77.44
2022-12-15T17:29:59.684Z,77.84
2022-12-15T17:32:27.016Z,77.74
2022-12-15T17:34:54.362Z,77.65
2022-12-15T17:37:24.425Z,78.05
2022-12-15T17:39:55.184Z,77.41
2022-12-15T17:42:28.410Z,78.05
2022-12-15T17:44:58.468Z,77.98
2022-12-15T17:47:31.790Z,78.16
2022-12-15T17:50:01.117Z,78.13
2022-12-15T17:52:34.391Z,77.96
2022-12-15T17:55:03.134Z,78.04
2022-12-15T17:57:36.467Z,77.93
2022-12-15T18:00:14.545Z,77.77
2022-12-15T18:02:41.408Z,77.90
2022-12-15T18:05:11.637Z,78.03
2022-12-15T18:07:39.191Z,77.64
2022-12-15T18:10:23.163Z,77.90
2022-12-15T18:12:49.904Z,77.99
2022-12-15T18:15:22.630Z,78.15
2022-12-15T18:17:49.555Z,78.04
2022-12-15T18:20:16.842Z,78.23
2022-12-15T18:22:43.605Z,77.64
2022-12-15T18:25:16.732Z,77.88
2022-12-15T18:27:43.630Z,77.98
2022-12-15T18:30:22.127Z,77.87
2022-12-15T18:32:51.029Z,77.95
2022-12-15T18:35:34.444Z,77.52
2022-12-15T18:38:01.075Z,77.71
2022-12-15T18:40:29.927Z,77.30
2022-12-15T18:42:56.779Z,77.64
2022-12-15T18:45:28.039Z,77.18
2022-12-15T18:47:54.914Z,77.98
2022-12-15T18:50:24.127Z,77.75
2022-12-15T18:53:15.688Z,77.83
2022-12-15T18:55:42.377Z,77.49
2022-12-15T18:58:21.212Z,77.37
2022-12-15T19:00:48.791Z,77.60
2022-12-15T19:03:15.849Z,77.56
2022-12-15T19:05:43.140Z,77.44
2022-12-15T19:08:13.582Z,77.79
2022-12-15T19:10:52.378Z,77.43
2022-12-15T19:13:22.611Z,77.76
2022-12-15T19:15:49.313Z,77.40
2022-12-15T19:18:36.612Z,77.30
2022-12-15T19:21:30.514Z,77.04
2022-12-15T19:23:57.194Z,77.80
2022-12-15T19:26:23.839Z,77.69
2022-12-15T19:28:50.445Z,77.83
2022-12-15T19:31:17.162Z,77.54
2022-12-15T19:33:44.129Z,77.38
2022-12-15T19:36:17.037Z,77.22
2022-12-15T19:38:45.317Z,77.53
2022-12-15T19:41:17.267Z,77.82
2022-12-15T19:43:44.645Z,77.38
2022-12-15T19:46:17.839Z,77.79
2022-12-15T19:48:44.630Z,77.63
2022-12-15T19:51:23.171Z,77.66
2022-12-15T19:53:52.123Z,77.95
2022-12-15T19:56:27.766Z,77.51
2022-12-15T19:58:54.364Z,77.57
2022-12-15T20:01:21.424Z,77.83
2022-12-15T20:03:52.789Z,77.04
2022-12-15T20:06:27.521Z,77.02
2022-12-15T20:08:56.256Z,77.49
2022-12-15T20:11:24.624Z,76.89
2022-12-15T20:13:52.471Z,77.04
2022-12-15T20:16:20.455Z,77.11
2022-12-15T20:18:49.235Z,76.92
2022-12-15T20:21:22.264Z,77.30
2022-12-15T20:23:58.676Z,76.94
2022-12-15T20:26:25.555Z,77.22
2022-12-15T20:28:53.411Z,77.32
2022-12-15T20:31:22.886Z,77.06
2022-12-15T20:33:50.040Z,77.45
2022-12-15T20:36:25.909Z,77.63
2022-12-15T20:38:53.307Z,77.13
2022-12-15T20:41:22.713Z,76.74
2022-12-15T20:43:50.129Z,76.94
2022-12-15T20:46:21.765Z,77.05
2022-12-15T20:48:50.121Z,77.31
2022-12-15T20:51:28.662Z,77.13
2022-12-15T20:53:57.381Z,77.16
2022-12-15T20:56:24.755Z,77.35
2022-12-15T20:58:53.114Z,77.20
2022-12-15T21:01:30.486Z,77.53
2022-12-15T21:03:59.555Z,77.33
2022-12-15T21:06:27.923Z,77.35
2022-12-15T21:08:55.628Z,77.51
2022-12-15T21:11:32.765Z,77.47
2022-12-15T21:14:04.238Z,77.63
2022-12-15T21:16:32.045Z,77.45
2022-12-15T21:21:52.134Z,77.53
2022-12-15T21:24:25.348Z,77.57
2022-12-15T21:26:52.564Z,77.58
2022-12-15T21:29:22.779Z,77.45
2022-12-15T21:31:49.426Z,76.86
2022-12-15T21:34:16.397Z,76.65
2022-12-15T21:36:45.710Z,77.38
2022-12-15T21:39:21.573Z,77.00
2022-12-15T21:41:48.436Z,76.98
2022-12-15T21:44:16.036Z,76.68
2022-12-15T21:46:42.774Z,76.72
2022-12-15T21:49:18.554Z,76.63
2022-12-15T21:51:51.920Z,77.46
2022-12-15T21:54:20.016Z,77.28
2022-12-15T21:56:48.076Z,77.06
2022-12-15T21:59:17.281Z,77.08
2022-12-15T22:01:44.232Z,76.87
2022-12-15T22:04:23.828Z,76.71
2022-12-15T22:06:51.005Z,77.17
2022-12-15T22:09:18.924Z,76.93
2022-12-15T22:11:50.079Z,76.82
2022-12-15T22:14:24.306Z,76.52
2022-12-15T22:16:51.343Z,76.37
2022-12-15T22:19:18.192Z,77.39
2022-12-15T22:21:44.867Z,77.49
2022-12-15T22:24:12.196Z,77.71
2022-12-15T22:26:40.482Z,77.04
2022-12-15T22:29:17.171Z,77.26
2022-12-15T22:31:43.864Z,77.39
2022-12-15T22:34:15.722Z,77.07
2022-12-15T22:36:43.027Z,77.19
2022-12-15T22:39:11.184Z,77.83
2022-12-15T22:41:40.535Z,77.13
2022-12-15T22:44:13.833Z,77.84
2022-12-15T22:46:40.600Z,77.62
2022-12-15T22:49:14.706Z,77.00
2022-12-15T22:51:41.506Z,77.91
2022-12-15T22:54:19.052Z,77.49
2022-12-15T22:56:53.755Z,76.98
2022-12-15T22:59:32.721Z,77.27
2022-12-15T23:02:02.234Z,77.60
2022-12-15T23:04:35.113Z,76.95
2022-12-15T23:07:05.645Z,77.64
2022-12-15T23:09:32.401Z,77.53
2022-12-15T23:12:02.030Z,77.41
2022-12-15T23:14:50.240Z,77.37
2022-12-15T23:17:19.850Z,77.69
2022-12-15T23:19:49.103Z,77.37
2022-12-15T23:22:15.823Z,77.61
2022-12-15T23:24:42.523Z,77.24
2022-12-15T23:27:12.538Z,77.10
2022-12-15T23:29:39.245Z,77.43
2022-12-15T23:32:06.203Z,77.52
2022-12-15T23:34:33.010Z,77.63
2022-12-15T23:36:59.815Z,77.67
2022-12-15T23:39:26.423Z,77.46
2022-12-15T23:41:55.409Z,77.74
2022-12-15T23:44:22.062Z,77.80
2022-12-15T23:46:51.791Z,77.37
2022-12-15T23:49:18.463Z,77.81
2022-12-15T23:51:45.078Z,77.87
2022-12-15T23:54:11.759Z,77.34
2022-12-15T23:56:42.340Z,77.32
2022-12-15T23:59:08.968Z,77.90
